Time;durP1;ratioP1;P1;durP2;ratioP2;P2;SDS_P1;SDS_P2;PMS_P1;PMS_P2;Temp;Humidity;BMP_temperature;BMP_pressure;BME280_temperature;BME280_humidity;BME280_pressure;Samples;Min_cycle;Max_cycle;Signal;HPM_P1;HPM_P2
2021/04/13 00:00:35;;;;;;;7.95;1.20;;;1.30;98.40;;;;;;5059125;28;20042;-80
2021/04/13 00:03:06;;;;;;;6.00;1.38;;;1.20;98.30;;;;;;5060556;28;20041;-80
2021/04/13 00:05:39;;;;;;;7.18;1.35;;;1.20;98.50;;;;;;5058224;28;20118;-80
2021/04/13 00:08:18;;;;;;;4.57;1.10;;;1.10;98.20;;;;;;5055194;28;20051;-80
2021/04/13 00:10:49;;;;;;;9.75;1.33;;;1.10;98.20;;;;;;5055418;28;20041;-80
2021/04/13 00:13:16;;;;;;;12.80;1.80;;;1.00;98.00;;;;;;5059514;28;20049;-80
2021/04/13 00:16:08;;;;;;;10.68;1.30;;;1.00;98.00;;;;;;5060068;28;20047;-80
2021/04/13 00:18:35;;;;;;;6.03;1.00;;;0.90;98.00;;;;;;5058150;28;20097;-80
2021/04/13 00:21:16;;;;;;;7.90;1.45;;;0.90;98.10;;;;;;5060994;28;20044;-81
2021/04/13 00:23:44;;;;;;;11.18;1.40;;;0.80;98.10;;;;;;5059256;28;20032;-81
2021/04/13 00:26:17;;;;;;;11.23;2.65;;;0.80;98.20;;;;;;5060819;28;20156;-81
2021/04/13 00:28:47;;;;;;;13.30;1.67;;;0.80;98.10;;;;;;5057340;28;20049;-80
2021/04/13 00:31:45;;;;;;;11.98;1.88;;;0.80;98.20;;;;;;5064987;28;20052;-80
2021/04/13 00:34:27;;;;;;;7.63;1.45;;;0.80;98.30;;;;;;5054141;28;20091;-80
2021/04/13 00:37:08;;;;;;;6.60;1.67;;;0.80;98.20;;;;;;5062289;28;20041;-80
2021/04/13 00:39:34;;;;;;;6.80;1.85;;;0.70;98.30;;;;;;5062862;28;20041;-80
2021/04/13 00:42:04;;;;;;;10.23;1.45;;;0.70;98.40;;;;;;5060157;28;20059;-80
2021/04/13 00:44:34;;;;;;;7.30;1.85;;;0.80;98.40;;;;;;5053916;28;20048;-80
2021/04/13 00:47:07;;;;;;;11.10;1.75;;;0.70;98.30;;;;;;5061463;28;20033;-81
2021/04/13 00:49:37;;;;;;;10.25;1.60;;;0.70;98.60;;;;;;5052085;28;20725;-81
2021/04/13 00:52:08;;;;;;;8.45;1.80;;;0.70;98.60;;;;;;5059454;28;20041;-79
2021/04/13 00:54:53;;;;;;;7.68;1.65;;;0.70;98.60;;;;;;5057403;28;20056;-80
2021/04/13 00:57:45;;;;;;;10.60;1.48;;;0.70;98.60;;;;;;5079840;28;20139;-79
2021/04/13 01:00:25;;;;;;;10.65;2.00;;;0.70;98.80;;;;;;5058005;28;20044;-79
2021/04/13 01:03:00;;;;;;;8.85;1.60;;;0.70;98.70;;;;;;5063815;28;20045;-80
2021/04/13 01:05:40;;;;;;;10.02;2.17;;;0.70;98.80;;;;;;5058148;28;20041;-79
2021/04/13 01:08:32;;;;;;;9.43;2.20;;;0.70;98.80;;;;;;5053532;28;20037;-79
2021/04/13 01:11:22;;;;;;;9.65;1.98;;;0.70;98.80;;;;;;5061082;28;20097;-80
2021/04/13 01:13:52;;;;;;;13.50;1.63;;;0.70;98.90;;;;;;5050416;28;20801;-80
2021/04/13 01:16:22;;;;;;;8.45;1.73;;;0.70;98.90;;;;;;5059813;28;20032;-80
2021/04/13 01:18:53;;;;;;;6.90;2.33;;;0.70;98.80;;;;;;5054814;28;21631;-80
2021/04/13 01:21:42;;;;;;;11.32;1.92;;;0.70;98.80;;;;;;5058746;28;20033;-79
2021/04/13 01:24:20;;;;;;;10.02;2.13;;;0.70;98.70;;;;;;5059090;28;20420;-79
2021/04/13 01:26:48;;;;;;;9.95;2.35;;;0.70;98.80;;;;;;5062092;28;20132;-79
2021/04/13 01:29:20;;;;;;;12.07;2.75;;;0.70;98.80;;;;;;5054983;28;20048;-80
2021/04/13 01:31:52;;;;;;;10.43;1.63;;;0.60;98.80;;;;;;5068556;28;20045;-79
2021/04/13 01:34:42;;;;;;;9.70;2.10;;;0.70;98.90;;;;;;5055213;28;20127;-79
2021/04/13 01:37:43;;;;;;;11.82;2.30;;;0.70;98.90;;;;;;5054336;28;20112;-80
2021/04/13 01:40:23;;;;;;;10.70;1.70;;;0.70;99.00;;;;;;5048974;28;20115;-80
2021/04/13 01:42:51;;;;;;;10.20;1.95;;;0.80;99.30;;;;;;5061488;28;20037;-80
2021/04/13 01:45:22;;;;;;;8.18;2.80;;;0.80;99.40;;;;;;5051120;28;20044;-80
2021/04/13 01:47:48;;;;;;;7.22;1.33;;;0.90;99.60;;;;;;5060871;28;20044;-80
2021/04/13 01:50:19;;;;;;;10.65;1.80;;;0.90;99.50;;;;;;5053102;28;20056;-80
2021/04/13 01:52:48;;;;;;;12.60;1.60;;;0.90;99.50;;;;;;5056306;28;20061;-80
2021/04/13 01:55:23;;;;;;;15.38;2.45;;;0.90;99.40;;;;;;5050606;28;20039;-80
2021/04/13 01:57:48;;;;;;;5.15;1.63;;;0.80;99.40;;;;;;5055107;28;20047;-80
2021/04/13 02:00:32;;;;;;;12.27;1.88;;;0.80;99.50;;;;;;5057583;28;20327;-80
2021/04/13 02:03:14;;;;;;;11.23;1.95;;;0.70;99.50;;;;;;5062787;28;20037;-80
2021/04/13 02:05:45;;;;;;;10.55;1.63;;;0.70;99.50;;;;;;5052817;28;20052;-80
2021/04/13 02:08:26;;;;;;;8.45;1.42;;;0.70;99.50;;;;;;5061836;28;20108;-80
2021/04/13 02:11:03;;;;;;;13.48;1.92;;;0.70;99.50;;;;;;5056484;28;20160;-80
2021/04/13 02:13:40;;;;;;;9.73;1.70;;;0.70;99.60;;;;;;5062019;28;20102;-79
2021/04/13 02:16:27;;;;;;;7.97;1.60;;;0.70;99.60;;;;;;5050284;28;20075;-80
2021/04/13 02:18:53;;;;;;;9.10;1.90;;;0.70;99.70;;;;;;5061486;28;20039;-80
2021/04/13 02:21:41;;;;;;;10.45;1.60;;;0.70;99.70;;;;;;5056484;28;20037;-79
2021/04/13 02:24:11;;;;;;;14.50;2.47;;;0.70;99.80;;;;;;5062197;28;20063;-79
2021/04/13 02:26:48;;;;;;;8.65;2.03;;;0.80;99.90;;;;;;5062618;28;20218;-80
2021/04/13 02:29:16;;;;;;;13.38;1.88;;;0.80;99.90;;;;;;5063680;28;20060;-80
2021/04/13 02:31:48;;;;;;;10.07;1.73;;;0.80;99.90;;;;;;5056528;28;20127;-80
2021/04/13 02:34:34;;;;;;;17.15;2.55;;;0.80;99.80;;;;;;5080696;28;20036;-80
2021/04/13 02:37:07;;;;;;;11.77;2.28;;;0.80;99.90;;;;;;5052877;28;20076;-79
2021/04/13 02:39:35;;;;;;;17.27;2.47;;;0.80;99.90;;;;;;5062787;28;20043;-80
2021/04/13 02:42:14;;;;;;;12.05;1.85;;;0.80;99.90;;;;;;5054479;28;20041;-80
2021/04/13 02:44:40;;;;;;;15.82;1.45;;;0.80;99.80;;;;;;5066315;28;20120;-80
2021/04/13 02:47:10;;;;;;;10.48;1.63;;;0.80;99.90;;;;;;5068884;28;20052;-80
2021/04/13 02:49:42;;;;;;;16.42;1.63;;;0.80;99.80;;;;;;5059708;28;20124;-80
2021/04/13 02:52:15;;;;;;;8.02;1.60;;;0.70;99.70;;;;;;5066685;28;20103;-80
2021/04/13 02:54:47;;;;;;;11.50;1.98;;;0.70;99.80;;;;;;5062839;28;20064;-80
2021/04/13 02:57:38;;;;;;;9.13;1.60;;;0.70;99.80;;;;;;5066841;28;20195;-80
2021/04/13 03:00:08;;;;;;;11.07;2.30;;;0.70;99.70;;;;;;5063699;28;20310;-80
2021/04/13 03:02:51;;;;;;;11.25;1.48;;;0.70;99.70;;;;;;5066081;28;20136;-80
2021/04/13 03:05:23;;;;;;;12.85;1.70;;;0.70;99.80;;;;;;5068004;28;20036;-79
2021/04/13 03:07:50;;;;;;;11.77;2.35;;;0.70;99.80;;;;;;5060595;28;20025;-80
2021/04/13 03:10:20;;;;;;;10.23;1.85;;;0.70;99.90;;;;;;5064552;28;21017;-80
2021/04/13 03:12:51;;;;;;;10.80;1.80;;;0.70;99.80;;;;;;5053769;28;20056;-80
2021/04/13 03:15:21;;;;;;;9.20;1.83;;;0.70;99.80;;;;;;5057031;28;20422;-80
2021/04/13 03:17:53;;;;;;;10.40;1.88;;;0.70;99.80;;;;;;5061076;28;20083;-81
2021/04/13 03:20:35;;;;;;;13.63;1.90;;;0.70;99.80;;;;;;5064036;28;20124;-81
2021/04/13 03:23:04;;;;;;;15.50;2.50;;;0.70;99.80;;;;;;5060023;28;20037;-78
2021/04/13 03:25:34;;;;;;;16.00;2.42;;;0.70;99.80;;;;;;5054414;28;20048;-78
2021/04/13 03:28:05;;;;;;;10.68;2.03;;;0.60;99.70;;;;;;5058799;28;20075;-79
2021/04/13 03:30:34;;;;;;;19.95;3.00;;;0.60;99.70;;;;;;5047794;28;20053;-78
2021/04/13 03:33:28;;;;;;;13.95;1.98;;;0.60;99.80;;;;;;5056363;28;20033;-78
2021/04/13 03:36:02;;;;;;;10.80;1.75;;;0.60;99.90;;;;;;5052308;28;20080;-79
2021/04/13 03:38:28;;;;;;;12.35;1.88;;;0.60;99.90;;;;;;5061018;28;20385;-78
2021/04/13 03:40:54;;;;;;;14.38;1.75;;;0.70;99.90;;;;;;5051796;28;20033;-79
2021/04/13 03:43:26;;;;;;;9.30;2.38;;;0.70;99.90;;;;;;5063363;28;20048;-80
2021/04/13 03:45:58;;;;;;;10.43;2.30;;;0.70;99.90;;;;;;5057927;28;20029;-80
2021/04/13 03:48:28;;;;;;;14.77;2.35;;;0.70;99.90;;;;;;5062835;28;20037;-80
2021/04/13 03:51:26;;;;;;;15.43;2.20;;;0.70;99.80;;;;;;5063624;28;20062;-80
2021/04/13 03:53:55;;;;;;;9.07;1.92;;;0.70;99.90;;;;;;5076125;28;20455;-78
2021/04/13 03:56:23;;;;;;;22.05;2.90;;;0.70;99.90;;;;;;5058723;28;20054;-80
2021/04/13 03:58:51;;;;;;;20.15;2.92;;;0.80;99.90;;;;;;5062506;28;20062;-80
2021/04/13 04:01:21;;;;;;;14.57;1.85;;;0.80;99.90;;;;;;5053553;28;20113;-79
2021/04/13 04:04:00;;;;;;;11.63;2.17;;;0.80;99.90;;;;;;5061638;28;20045;-79
2021/04/13 04:06:40;;;;;;;14.90;2.10;;;0.80;99.90;;;;;;5044522;28;20480;-79
2021/04/13 04:09:22;;;;;;;11.52;2.17;;;0.80;99.90;;;;;;5058125;28;20091;-79
2021/04/13 04:11:49;;;;;;;12.65;2.53;;;0.70;99.90;;;;;;5058766;28;20044;-79
2021/04/13 04:14:20;;;;;;;13.95;2.08;;;0.70;99.90;;;;;;5060893;28;20029;-79
2021/04/13 04:16:46;;;;;;;19.33;3.40;;;0.70;99.90;;;;;;5051869;28;20041;-79
2021/04/13 04:19:20;;;;;;;10.48;2.22;;;0.60;99.80;;;;;;5062195;28;20851;-79
2021/04/13 04:21:56;;;;;;;14.02;1.98;;;0.60;99.80;;;;;;5060447;28;20134;-79
2021/04/13 04:24:30;;;;;;;15.48;2.67;;;0.60;99.80;;;;;;5061097;28;20048;-79
2021/04/13 04:27:16;;;;;;;15.13;2.00;;;0.50;99.80;;;;;;5041367;28;20051;-79
2021/04/13 04:29:49;;;;;;;13.45;2.50;;;0.60;99.80;;;;;;5056480;28;20051;-79
2021/04/13 04:32:37;;;;;;;14.07;3.80;;;0.50;99.80;;;;;;5062340;28;20139;-79
2021/04/13 04:35:06;;;;;;;17.58;2.90;;;0.50;99.90;;;;;;5056231;28;20033;-79
2021/04/13 04:37:58;;;;;;;15.93;2.55;;;0.50;99.90;;;;;;5054337;28;20062;-79
2021/04/13 04:40:26;;;;;;;16.55;2.25;;;0.50;99.80;;;;;;5055291;28;20037;-79
2021/04/13 04:42:58;;;;;;;11.00;2.20;;;0.40;99.80;;;;;;5051078;28;20029;-79
2021/04/13 04:45:36;;;;;;;14.65;2.67;;;0.40;99.80;;;;;;5058213;28;20056;-79
2021/04/13 04:48:26;;;;;;;19.98;2.45;;;0.40;99.80;;;;;;5056855;28;20068;-80
2021/04/13 04:51:13;;;;;;;13.15;2.30;;;0.40;99.80;;;;;;5057121;28;20159;-79
2021/04/13 04:53:42;;;;;;;15.20;2.72;;;0.30;99.90;;;;;;5072942;28;20037;-80
2021/04/13 04:56:10;;;;;;;13.18;2.30;;;0.30;99.90;;;;;;5071898;28;20060;-80
2021/04/13 04:58:36;;;;;;;11.30;2.03;;;0.30;99.80;;;;;;5062250;28;20045;-80
2021/04/13 05:01:03;;;;;;;16.38;2.67;;;0.30;99.80;;;;;;5061291;28;20047;-80
2021/04/13 05:03:30;;;;;;;17.15;2.33;;;0.30;99.80;;;;;;5050324;28;20143;-79
2021/04/13 05:05:58;;;;;;;16.80;3.00;;;0.30;99.90;;;;;;5063670;28;20126;-79
2021/04/13 05:08:25;;;;;;;18.55;2.97;;;0.40;99.90;;;;;;5054443;28;20045;-79
2021/04/13 05:10:52;;;;;;;18.27;2.90;;;0.40;99.90;;;;;;5062565;28;20108;-80
2021/04/13 05:13:19;;;;;;;19.20;3.28;;;0.50;99.90;;;;;;5059709;28;20827;-79
2021/04/13 05:15:45;;;;;;;17.67;2.40;;;0.50;99.90;;;;;;5057441;28;20048;-78
2021/04/13 05:18:11;;;;;;;12.25;2.53;;;0.50;99.90;;;;;;5051314;28;20057;-77
2021/04/13 05:20:37;;;;;;;17.35;2.83;;;0.50;99.90;;;;;;5054262;28;20107;-77
2021/04/13 05:23:03;;;;;;;28.13;3.50;;;0.60;99.90;;;;;;5053152;28;20037;-79
2021/04/13 05:25:29;;;;;;;14.13;2.60;;;0.70;99.90;;;;;;5052904;28;20040;-78
2021/04/13 05:27:55;;;;;;;28.42;4.60;;;0.80;99.90;;;;;;5060777;28;20181;-77
2021/04/13 05:30:25;;;;;;;22.65;4.38;;;1.00;99.90;;;;;;5055156;28;20052;-78
2021/04/13 05:32:51;;;;;;;19.33;3.90;;;1.20;99.90;;;;;;5065580;28;20045;-79
2021/04/13 05:35:20;;;;;;;15.43;3.83;;;1.30;99.90;;;;;;5053155;28;20052;-80
2021/04/13 05:37:46;;;;;;;10.82;2.90;;;1.50;99.90;;;;;;5051987;28;20397;-79
2021/04/13 05:40:25;;;;;;;21.92;3.25;;;1.70;99.90;;;;;;5046884;28;20451;-79
2021/04/13 05:42:57;;;;;;;16.10;4.00;;;1.90;99.90;;;;;;5056269;28;20060;-79
2021/04/13 05:45:30;;;;;;;20.58;3.72;;;2.10;99.90;;;;;;5041325;28;20080;-79
2021/04/13 05:47:59;;;;;;;13.23;2.80;;;2.30;99.90;;;;;;5057766;28;20507;-77
2021/04/13 05:50:37;;;;;;;13.57;3.00;;;2.50;99.90;;;;;;5048826;28;20094;-77
2021/04/13 05:53:04;;;;;;;17.67;2.63;;;2.70;99.90;;;;;;5063911;28;20075;-76
2021/04/13 05:55:31;;;;;;;9.60;2.25;;;2.80;99.90;;;;;;5051140;28;20056;-76
2021/04/13 05:58:05;;;;;;;15.02;2.90;;;3.10;99.70;;;;;;5054939;28;20031;-76
2021/04/13 06:00:31;;;;;;;12.13;2.15;;;3.20;99.50;;;;;;5049612;28;20550;-76
2021/04/13 06:02:59;;;;;;;16.52;2.08;;;3.40;99.30;;;;;;5058171;28;20036;-75
2021/04/13 06:05:27;;;;;;;11.98;2.03;;;3.60;99.20;;;;;;5050967;28;20044;-76
2021/04/13 06:07:55;;;;;;;13.85;2.45;;;3.80;98.60;;;;;;5055499;28;20060;-80
2021/04/13 06:10:23;;;;;;;11.18;2.40;;;4.00;98.30;;;;;;5051661;28;20029;-76
2021/04/13 06:13:01;;;;;;;18.02;2.63;;;4.10;98.10;;;;;;5050186;28;20048;-76
2021/04/13 06:15:29;;;;;;;10.18;1.75;;;4.30;97.70;;;;;;5049893;28;23698;-76
2021/04/13 06:17:55;;;;;;;14.30;2.03;;;4.50;97.30;;;;;;5054269;28;20060;-76
2021/04/13 06:20:23;;;;;;;12.05;2.08;;;4.70;96.90;;;;;;5053253;28;20033;-76
2021/04/13 06:22:50;;;;;;;12.50;1.88;;;4.80;96.40;;;;;;5053754;28;20079;-76
2021/04/13 06:25:18;;;;;;;15.15;2.28;;;5.00;96.40;;;;;;5050806;28;20076;-76
2021/04/13 06:27:44;;;;;;;13.00;1.98;;;5.20;96.50;;;;;;5047001;28;20507;-76
2021/04/13 06:30:11;;;;;;;11.20;2.00;;;5.40;96.00;;;;;;5054487;28;20057;-75
2021/04/13 06:32:36;;;;;;;11.00;1.92;;;5.50;95.60;;;;;;5055497;28;20105;-75
2021/04/13 06:35:03;;;;;;;10.45;1.75;;;5.70;95.30;;;;;;5054370;28;20045;-75
2021/04/13 06:37:29;;;;;;;12.35;1.55;;;5.90;94.90;;;;;;5046610;28;20041;-76
2021/04/13 06:39:55;;;;;;;13.95;2.92;;;6.00;94.30;;;;;;5052546;28;20090;-76
2021/04/13 06:42:46;;;;;;;12.50;1.83;;;6.20;94.50;;;;;;5046283;28;20385;-76
2021/04/13 06:45:18;;;;;;;11.60;2.00;;;6.40;93.80;;;;;;5052232;28;20036;-77
2021/04/13 06:48:21;;;;;;;9.50;1.42;;;6.50;94.10;;;;;;5044250;28;20045;-76
2021/04/13 06:51:19;;;;;;;8.15;1.38;;;6.80;92.30;;;;;;5060980;28;20529;-75
2021/04/13 06:54:26;;;;;;;9.98;1.95;;;7.00;92.70;;;;;;5052497;28;20082;-75
2021/04/13 06:57:06;;;;;;;12.57;1.85;;;7.30;92.30;;;;;;5034317;28;20056;-76
2021/04/13 06:59:48;;;;;;;8.48;1.40;;;7.40;92.30;;;;;;5056064;28;20477;-77
2021/04/13 07:02:23;;;;;;;14.40;2.03;;;7.60;92.30;;;;;;5049515;28;21196;-76
2021/04/13 07:04:59;;;;;;;10.18;1.63;;;7.90;92.00;;;;;;5059819;28;20064;-76
2021/04/13 07:07:38;;;;;;;9.68;1.30;;;8.10;91.50;;;;;;5060222;28;20056;-75
2021/04/13 07:10:18;;;;;;;11.07;1.45;;;8.30;86.80;;;;;;5064879;28;20056;-75
2021/04/13 07:12:51;;;;;;;14.00;1.58;;;8.30;89.30;;;;;;5052121;28;20115;-76
2021/04/13 07:15:46;;;;;;;12.77;1.70;;;8.50;90.20;;;;;;5067106;28;20403;-76
2021/04/13 07:18:30;;;;;;;;;;;8.60;86.20;;;;;;5047165;28;20048;-76
2021/04/13 07:21:23;;;;;;;6.63;0.98;;;8.80;81.70;;;;;;5061515;28;19931;-76
2021/04/13 07:23:58;;;;;;;8.77;1.30;;;9.00;84.70;;;;;;5059445;28;20053;-76
2021/04/13 07:26:35;;;;;;;8.15;1.20;;;9.30;87.40;;;;;;5061978;28;20575;-76
2021/04/13 07:29:24;;;;;;;14.30;1.33;;;9.50;87.10;;;;;;5055093;28;20080;-75
2021/04/13 07:32:10;;;;;;;9.95;0.98;;;9.70;82.70;;;;;;5050861;28;20755;-77
2021/04/13 07:34:39;;;;;;;8.43;0.95;;;9.70;77.00;;;;;;5056114;28;20508;-77
2021/04/13 07:37:16;;;;;;;5.47;0.90;;;9.70;81.70;;;;;;5056945;28;20388;-77
2021/04/13 07:39:46;;;;;;;8.65;1.02;;;9.50;77.00;;;;;;5052671;28;20148;-77
2021/04/13 07:42:35;;;;;;;11.95;1.50;;;9.40;80.40;;;;;;5058477;28;20037;-76
2021/04/13 07:45:18;;;;;;;5.30;1.27;;;9.20;73.20;;;;;;5060408;28;20525;-77
2021/04/13 07:48:20;;;;;;;10.30;1.33;;;9.20;82.30;;;;;;5060527;28;20067;-78
2021/04/13 07:51:11;;;;;;;7.47;1.10;;;9.20;78.60;;;;;;5034837;28;20091;-77
2021/04/13 07:54:30;;;;;;;9.95;0.93;;;9.10;71.50;;;;;;5058237;28;20119;-77
2021/04/13 07:57:00;;;;;;;6.25;0.95;;;9.10;73.30;;;;;;5060284;28;20056;-76
2021/04/13 07:59:45;;;;;;;5.10;0.73;;;9.20;74.40;;;;;;5051693;28;20035;-77
2021/04/13 08:02:11;;;;;;;10.25;1.20;;;9.10;76.80;;;;;;5062272;28;20048;-76
2021/04/13 08:04:38;;;;;;;7.20;0.70;;;9.20;78.80;;;;;;5055500;28;20492;-77
2021/04/13 08:07:17;;;;;;;6.57;1.00;;;9.40;77.10;;;;;;5060113;28;20492;-76
2021/04/13 08:09:51;;;;;;;4.05;0.68;;;9.60;72.20;;;;;;5055228;28;20061;-77
2021/04/13 08:12:20;;;;;;;9.23;0.90;;;9.60;74.60;;;;;;5056971;28;20409;-77
2021/04/13 08:14:48;;;;;;;7.88;0.70;;;9.70;74.40;;;;;;5058720;28;23497;-77
2021/04/13 08:17:21;;;;;;;7.95;0.70;;;9.80;72.30;;;;;;5053604;28;20558;-77
2021/04/13 08:20:24;;;;;;;8.57;1.10;;;9.60;73.30;;;;;;5059799;28;20382;-77
2021/04/13 08:22:53;;;;;;;5.10;0.85;;;9.40;66.80;;;;;;5047451;28;20245;-77
2021/04/13 08:25:49;;;;;;;6.22;1.25;;;9.40;75.80;;;;;;5050670;28;20129;-77
2021/04/13 08:28:34;;;;;;;10.52;1.08;;;9.60;67.10;;;;;;5051753;28;20392;-77
2021/04/13 08:33:58;;;;;;;5.63;0.55;;;9.70;68.00;;;;;;5057824;28;20041;-77
2021/04/13 08:36:33;;;;;;;5.97;0.90;;;9.70;71.30;;;;;;5060385;28;20097;-76
2021/04/13 08:39:04;;;;;;;2.63;0.25;;;10.00;69.60;;;;;;5056210;28;20177;-76
2021/04/13 08:41:42;;;;;;;6.78;0.50;;;10.10;65.60;;;;;;5056621;28;20498;-76
2021/04/13 08:44:31;;;;;;;6.32;1.00;;;10.00;62.20;;;;;;5055807;28;20128;-76
2021/04/13 08:47:20;;;;;;;7.97;0.85;;;10.10;67.20;;;;;;5049650;28;20041;-76
2021/04/13 08:49:58;;;;;;;4.38;0.90;;;10.10;62.60;;;;;;5065308;28;20131;-76
2021/04/13 08:52:44;;;;;;;3.97;0.60;;;10.20;63.50;;;;;;5048852;28;20036;-76
2021/04/13 08:55:22;;;;;;;8.32;2.60;;;10.20;66.30;;;;;;5053059;28;20879;-77
2021/04/13 08:58:09;;;;;;;4.75;0.63;;;10.40;59.70;;;;;;5062771;28;20052;-77
2021/04/13 09:00:47;;;;;;;5.15;0.63;;;10.20;58.50;;;;;;5061699;28;20063;-77
2021/04/13 09:03:15;;;;;;;;;;;10.10;61.00;;;;;;5057202;28;20076;-78
2021/04/13 09:05:42;;;;;;;6.95;1.02;;;10.20;58.40;;;;;;5055674;28;20335;-78
2021/04/13 09:08:34;;;;;;;4.00;0.55;;;10.60;66.80;;;;;;5058165;28;20110;-79
2021/04/13 09:11:21;;;;;;;4.05;0.60;;;10.80;59.70;;;;;;5066921;28;20151;-78
2021/04/13 09:14:02;;;;;;;3.60;0.60;;;10.70;62.00;;;;;;5051550;28;20036;-78
2021/04/13 09:16:32;;;;;;;3.95;0.70;;;10.40;60.30;;;;;;5053943;28;20499;-78
2021/04/13 09:19:03;;;;;;;5.88;0.77;;;10.00;63.60;;;;;;5050289;28;20044;-78
2021/04/13 09:21:49;;;;;;;4.07;0.60;;;9.40;66.00;;;;;;5058649;28;20044;-77
2021/04/13 09:24:23;;;;;;;5.95;0.60;;;8.70;67.70;;;;;;5047113;28;20063;-76
2021/04/13 09:27:02;;;;;;;3.88;0.70;;;8.20;71.20;;;;;;5057306;28;20036;-77
2021/04/13 09:29:46;;;;;;;4.55;0.70;;;8.10;71.50;;;;;;5056259;28;20350;-78
2021/04/13 09:32:42;;;;;;;4.40;0.60;;;8.30;73.70;;;;;;5066863;28;20053;-78
2021/04/13 09:35:29;;;;;;;4.00;0.77;;;8.60;72.10;;;;;;5046434;28;20052;-77
2021/04/13 09:38:23;;;;;;;4.45;0.65;;;8.80;71.30;;;;;;5055389;28;20060;-76
2021/04/13 09:41:12;;;;;;;5.07;0.60;;;9.00;69.30;;;;;;5061577;28;20128;-77
2021/04/13 09:43:51;;;;;;;7.60;0.90;;;9.30;65.90;;;;;;5047060;28;20084;-77
2021/04/13 09:46:52;;;;;;;6.20;0.82;;;9.50;64.60;;;;;;5065163;28;20060;-77
2021/04/13 09:49:46;;;;;;;2.75;0.40;;;9.60;65.40;;;;;;5056916;28;20181;-77
2021/04/13 09:52:25;;;;;;;4.85;0.73;;;9.60;64.40;;;;;;5059576;28;20113;-77
2021/04/13 09:55:38;;;;;;;7.60;0.70;;;9.60;63.50;;;;;;5052427;28;20417;-77
2021/04/13 09:58:28;;;;;;;6.07;1.58;;;9.60;61.80;;;;;;5050356;28;20071;-76
2021/04/13 10:01:22;;;;;;;5.47;0.65;;;9.40;63.40;;;;;;5051222;28;20062;-76
2021/04/13 10:04:32;;;;;;;5.28;0.60;;;9.50;62.80;;;;;;5060307;28;20438;-76
2021/04/13 10:07:19;;;;;;;6.03;0.30;;;9.90;62.30;;;;;;5058157;28;20052;-77
2021/04/13 10:09:46;;;;;;;4.40;0.60;;;10.40;59.00;;;;;;5050306;28;20060;-77
2021/04/13 10:12:17;;;;;;;2.55;0.35;;;10.80;60.40;;;;;;5052553;28;20052;-77
2021/04/13 10:15:17;;;;;;;5.55;0.52;;;11.10;59.50;;;;;;5054745;28;20132;-77
2021/04/13 10:18:01;;;;;;;3.30;0.40;;;11.50;55.60;;;;;;5057364;28;20134;-77
2021/04/13 10:20:54;;;;;;;3.40;0.47;;;11.50;56.70;;;;;;5054892;28;20377;-77
2021/04/13 10:23:23;;;;;;;4.25;0.77;;;11.20;54.70;;;;;;5041091;28;20072;-77
2021/04/13 10:25:58;;;;;;;3.55;0.60;;;10.80;60.00;;;;;;5053049;28;20484;-77
2021/04/13 10:28:47;;;;;;;6.35;0.70;;;10.40;61.70;;;;;;5062237;28;20094;-76
2021/04/13 10:31:48;;;;;;;5.40;0.80;;;9.80;63.00;;;;;;5054128;28;20049;-76
2021/04/13 10:34:30;;;;;;;8.10;0.70;;;9.20;65.60;;;;;;5051342;28;20048;-76
2021/04/13 10:37:21;;;;;;;3.90;0.57;;;8.70;68.80;;;;;;5046606;28;20041;-76
2021/04/13 10:40:28;;;;;;;3.15;0.35;;;8.40;66.60;;;;;;5060755;28;20033;-76
2021/04/13 10:43:02;;;;;;;4.25;0.35;;;8.10;67.00;;;;;;5054103;28;20041;-77
2021/04/13 10:45:52;;;;;;;2.95;0.40;;;8.20;69.70;;;;;;5065851;28;20052;-77
2021/04/13 10:48:39;;;;;;;3.13;0.40;;;8.50;67.70;;;;;;5059489;28;20052;-77
2021/04/13 10:51:26;;;;;;;3.50;0.60;;;8.80;67.30;;;;;;5062260;28;20547;-77
2021/04/13 10:54:01;;;;;;;5.75;0.73;;;9.10;65.20;;;;;;5048732;28;20511;-77
2021/04/13 10:56:45;;;;;;;;;;;9.30;64.00;;;;;;5051936;28;20037;-77
2021/04/13 10:59:21;;;;;;;4.55;0.55;;;9.40;57.80;;;;;;5064653;28;20368;-76
2021/04/13 11:02:00;;;;;;;2.55;0.63;;;9.70;59.50;;;;;;5055606;28;20043;-77
2021/04/13 11:05:05;;;;;;;4.70;0.63;;;9.80;58.10;;;;;;5055101;28;20060;-77
2021/04/13 11:07:49;;;;;;;5.13;0.95;;;10.10;57.80;;;;;;5060135;28;20106;-76
2021/04/13 11:10:43;;;;;;;5.53;0.57;;;10.10;58.90;;;;;;5060182;28;20428;-76
2021/04/13 11:13:39;;;;;;;3.47;0.50;;;10.20;59.70;;;;;;5053827;28;20102;-76
2021/04/13 11:16:06;;;;;;;2.75;0.50;;;10.30;57.90;;;;;;5059409;28;20115;-77
2021/04/13 11:18:55;;;;;;;2.80;0.40;;;10.30;61.80;;;;;;5056208;28;20057;-77
2021/04/13 11:21:39;;;;;;;4.30;0.77;;;10.20;56.20;;;;;;5054489;28;20059;-77
2021/04/13 11:24:19;;;;;;;7.28;0.80;;;10.30;57.40;;;;;;5059029;28;20051;-77
2021/04/13 11:27:15;;;;;;;3.50;0.38;;;10.40;59.70;;;;;;5057346;28;20048;-77
2021/04/13 11:30:15;;;;;;;8.55;0.55;;;10.30;55.90;;;;;;5066697;28;20052;-77
2021/04/13 11:33:07;;;;;;;6.10;0.90;;;9.90;57.00;;;;;;5057484;28;20061;-77
2021/04/13 11:35:42;;;;;;;2.95;0.65;;;9.60;56.00;;;;;;5061587;28;20048;-77
2021/04/13 11:38:32;;;;;;;6.10;0.70;;;9.40;59.60;;;;;;5057232;28;20052;-78
2021/04/13 11:41:23;;;;;;;7.65;0.90;;;9.30;61.50;;;;;;5064270;28;20061;-79
2021/04/13 11:43:59;;;;;;;4.93;0.52;;;8.90;63.20;;;;;;5053074;28;20056;-78
2021/04/13 11:46:46;;;;;;;5.60;0.75;;;8.60;64.60;;;;;;5053331;28;20094;-77
2021/04/13 11:49:42;;;;;;;3.95;0.52;;;8.60;67.40;;;;;;5052593;28;20032;-78
2021/04/13 11:52:35;;;;;;;2.67;0.60;;;8.80;63.90;;;;;;5054490;28;20130;-77
2021/04/13 11:55:01;;;;;;;6.05;0.55;;;8.80;64.60;;;;;;5058184;28;20108;-77
2021/04/13 11:57:30;;;;;;;6.53;0.60;;;8.90;64.90;;;;;;5058097;28;20067;-77
2021/04/13 12:00:18;;;;;;;2.97;0.35;;;9.00;62.60;;;;;;5051174;28;20033;-76
2021/04/13 12:02:46;;;;;;;4.32;0.45;;;9.10;60.40;;;;;;5057070;28;20029;-76
2021/04/13 12:05:39;;;;;;;5.40;0.60;;;9.20;60.00;;;;;;5052162;28;20523;-76
2021/04/13 12:08:05;;;;;;;2.78;0.30;;;9.10;59.10;;;;;;5055450;28;20053;-77
2021/04/13 12:10:31;;;;;;;4.75;0.50;;;9.10;60.60;;;;;;5049578;28;20526;-77
2021/04/13 12:13:08;;;;;;;4.05;0.60;;;9.00;60.50;;;;;;5062540;28;20057;-77
2021/04/13 12:15:53;;;;;;;4.15;0.50;;;8.90;58.00;;;;;;5054624;28;20052;-76
2021/04/13 12:18:36;;;;;;;2.28;0.20;;;8.80;58.80;;;;;;5053371;28;20067;-77
2021/04/13 12:21:28;;;;;;;4.03;0.38;;;8.90;56.90;;;;;;5053534;28;20037;-77
2021/04/13 12:23:58;;;;;;;3.35;0.70;;;9.20;55.90;;;;;;5046245;28;20048;-76
2021/04/13 12:26:39;;;;;;;4.05;0.50;;;9.40;57.30;;;;;;5047125;28;20037;-77
2021/04/13 12:29:27;;;;;;;4.88;0.50;;;9.60;55.40;;;;;;5061878;28;20048;-77
2021/04/13 12:32:23;;;;;;;3.00;0.40;;;9.80;56.20;;;;;;5054067;28;20397;-76
2021/04/13 12:34:52;;;;;;;2.28;0.40;;;9.80;55.80;;;;;;5039442;28;20048;-77
2021/04/13 12:37:47;;;;;;;5.85;0.68;;;9.60;58.50;;;;;;5051775;28;20115;-78
2021/04/13 12:40:16;;;;;;;4.68;0.40;;;9.50;58.40;;;;;;5046222;28;20047;-77
2021/04/13 12:42:46;;;;;;;4.28;0.60;;;9.40;59.80;;;;;;5056995;28;20060;-77
2021/04/13 12:45:18;;;;;;;3.13;0.40;;;9.20;61.10;;;;;;5051703;28;20052;-77
2021/04/13 12:47:48;;;;;;;4.30;0.73;;;9.10;62.50;;;;;;5058810;28;20033;-77
2021/04/13 12:50:39;;;;;;;4.85;0.98;;;9.20;62.60;;;;;;5058351;28;20420;-77
2021/04/13 12:53:24;;;;;;;2.58;0.20;;;9.10;61.20;;;;;;5057077;28;20056;-76
2021/04/13 12:56:03;;;;;;;2.47;0.30;;;9.00;58.30;;;;;;5045338;28;20048;-77
2021/04/13 12:58:35;;;;;;;5.03;0.40;;;9.10;59.00;;;;;;5059204;28;20551;-77
2021/04/13 13:01:01;;;;;;;1.80;0.20;;;9.30;57.80;;;;;;5054130;28;20119;-76
2021/04/13 13:03:35;;;;;;;3.92;0.60;;;9.40;57.40;;;;;;5046493;28;20131;-76
2021/04/13 13:06:30;;;;;;;2.83;0.50;;;9.40;56.50;;;;;;5057380;28;20033;-77
2021/04/13 13:09:06;;;;;;;3.40;0.40;;;9.20;54.70;;;;;;5054786;28;20047;-77
2021/04/13 13:11:32;;;;;;;2.20;0.32;;;8.90;55.80;;;;;;5053435;28;20045;-76
2021/04/13 13:14:04;;;;;;;2.95;0.30;;;8.70;58.60;;;;;;5056519;28;20449;-78
2021/04/13 13:16:30;;;;;;;4.22;0.60;;;8.70;59.00;;;;;;5048941;28;20036;-79
2021/04/13 13:18:57;;;;;;;3.05;0.20;;;8.70;59.40;;;;;;5059689;28;20059;-78
2021/04/13 13:21:46;;;;;;;2.13;0.30;;;8.70;59.80;;;;;;5059098;28;20070;-79
2021/04/13 13:24:19;;;;;;;2.10;0.40;;;8.80;59.80;;;;;;5062025;28;20489;-80
2021/04/13 13:26:45;;;;;;;2.03;0.63;;;8.80;58.90;;;;;;5057127;28;20462;-79
2021/04/13 13:29:11;;;;;;;4.72;1.52;;;8.90;60.00;;;;;;5054095;28;20121;-78
2021/04/13 13:31:40;;;;;;;1.88;0.40;;;9.00;59.50;;;;;;5051249;28;20088;-77
2021/04/13 13:34:13;;;;;;;2.75;0.28;;;9.00;58.40;;;;;;5053251;28;20942;-77
2021/04/13 13:36:41;;;;;;;4.10;0.60;;;8.80;58.80;;;;;;5059684;28;20381;-78
2021/04/13 13:39:11;;;;;;;4.30;0.63;;;8.70;59.40;;;;;;5052678;28;20049;-78
2021/04/13 13:41:40;;;;;;;2.45;0.40;;;8.70;60.70;;;;;;5051144;28;20040;-78
2021/04/13 13:44:25;;;;;;;2.97;0.35;;;8.50;58.70;;;;;;5048055;28;20033;-78
2021/04/13 13:47:02;;;;;;;3.28;0.40;;;8.30;57.70;;;;;;5060523;28;20477;-78
2021/04/13 13:49:43;;;;;;;3.00;0.30;;;8.30;58.70;;;;;;5051758;28;20052;-78